createdAt,value
2023-05-22T00:02:12.859Z,15.05
2023-05-22T00:04:41.745Z,14.57
2023-05-22T00:07:10.105Z,14.25
2023-05-22T00:09:38.421Z,14.02
2023-05-22T00:12:07.585Z,12.63
2023-05-22T00:14:37.255Z,13.88
2023-05-22T00:17:05.932Z,18.47
2023-05-22T00:19:35.194Z,16.77
2023-05-22T00:22:05.408Z,13.35
2023-05-22T00:24:33.679Z,13.45
2023-05-22T00:27:01.977Z,14.05
2023-05-22T00:29:30.424Z,14.80
2023-05-22T00:32:00.053Z,15.35
2023-05-22T00:34:28.331Z,20.10
2023-05-22T00:36:56.650Z,15.55
2023-05-22T00:39:24.939Z,16.67
2023-05-22T00:41:53.684Z,14.63
2023-05-22T00:44:23.090Z,14.32
2023-05-22T00:46:52.050Z,17.20
2023-05-22T00:49:21.762Z,12.20
2023-05-22T00:51:50.520Z,16.37
2023-05-22T00:54:18.864Z,14.00
2023-05-22T00:56:47.424Z,15.38
2023-05-22T00:59:15.811Z,12.40
2023-05-22T01:01:45.224Z,16.02
2023-05-22T01:04:15.519Z,15.35
2023-05-22T01:06:47.711Z,12.95
2023-05-22T01:09:16.356Z,14.80
2023-05-22T01:11:51.500Z,14.27
2023-05-22T01:14:28.174Z,15.85
2023-05-22T01:17:08.805Z,14.23
2023-05-22T01:22:21.672Z,13.73
2023-05-22T01:25:12.932Z,20.20
2023-05-22T01:28:04.285Z,16.60
2023-05-22T01:30:49.339Z,16.00
2023-05-22T01:33:18.227Z,16.77
2023-05-22T01:35:49.158Z,19.55
2023-05-22T01:38:18.125Z,14.55
2023-05-22T01:40:47.220Z,15.93
2023-05-22T01:43:16.404Z,16.77
2023-05-22T01:45:46.069Z,15.63
2023-05-22T01:48:14.377Z,15.67
2023-05-22T01:50:42.699Z,15.52
2023-05-22T01:53:14.244Z,14.85
2023-05-22T01:55:47.523Z,17.92
2023-05-22T01:58:22.555Z,14.10
2023-05-22T02:00:54.903Z,15.15
2023-05-22T02:03:28.705Z,14.77
2023-05-22T02:06:00.698Z,16.20
2023-05-22T02:08:29.164Z,14.25
2023-05-22T02:10:57.937Z,14.35
2023-05-22T02:13:26.379Z,13.90
2023-05-22T02:15:56.669Z,19.23
2023-05-22T02:18:29.466Z,15.82
2023-05-22T02:20:58.024Z,12.70
2023-05-22T02:23:26.637Z,16.60
2023-05-22T02:25:55.510Z,15.43
2023-05-22T02:28:23.802Z,15.68
2023-05-22T02:30:52.254Z,14.80
2023-05-22T02:33:22.120Z,17.67
2023-05-22T02:35:50.503Z,18.02
2023-05-22T02:38:18.780Z,16.30
2023-05-22T02:40:47.156Z,17.58
2023-05-22T02:43:15.448Z,15.45
2023-05-22T02:45:43.751Z,17.15
2023-05-22T02:48:13.286Z,16.35
2023-05-22T02:50:44.243Z,15.80
2023-05-22T02:53:14.403Z,19.50
2023-05-22T02:55:42.735Z,16.60
2023-05-22T02:58:13.301Z,14.50
2023-05-22T03:03:10.018Z,16.35
2023-05-22T03:05:38.517Z,13.82
2023-05-22T03:08:08.302Z,17.92
2023-05-22T03:10:36.925Z,18.52
2023-05-22T03:13:05.433Z,14.05
2023-05-22T03:15:33.732Z,19.42
2023-05-22T03:18:02.375Z,14.90
2023-05-22T03:20:31.448Z,16.10
2023-05-22T03:22:59.738Z,17.92
2023-05-22T03:25:29.346Z,16.83
2023-05-22T03:27:57.701Z,18.33
2023-05-22T03:30:26.145Z,16.80
2023-05-22T03:32:54.581Z,15.35
2023-05-22T03:35:22.900Z,19.33
2023-05-22T03:37:51.255Z,19.52
2023-05-22T03:40:19.600Z,17.63
2023-05-22T03:42:50.028Z,18.92
2023-05-22T03:45:18.414Z,17.55
2023-05-22T03:47:46.726Z,18.95
2023-05-22T03:50:15.028Z,20.73
2023-05-22T03:52:43.317Z,15.93
2023-05-22T03:55:12.096Z,16.70
2023-05-22T03:57:40.762Z,13.60
2023-05-22T04:00:12.622Z,14.98
2023-05-22T04:02:45.317Z,14.13
2023-05-22T04:05:13.896Z,18.25
2023-05-22T04:07:42.184Z,19.65
2023-05-22T04:10:11.191Z,20.88
2023-05-22T04:12:39.453Z,20.95
2023-05-22T04:15:10.372Z,15.65
2023-05-22T04:17:40.884Z,16.90
2023-05-22T04:20:11.268Z,18.85
2023-05-22T04:22:39.893Z,17.80
2023-05-22T04:25:08.707Z,19.08
2023-05-22T04:27:38.162Z,15.30
2023-05-22T04:30:08.877Z,15.43
2023-05-22T04:32:38.614Z,16.00
2023-05-22T04:35:07.418Z,17.48
2023-05-22T04:37:35.912Z,17.02
2023-05-22T04:40:07.440Z,16.83
2023-05-22T04:42:35.972Z,17.15
2023-05-22T04:45:04.445Z,16.88
2023-05-22T04:47:32.958Z,15.38
2023-05-22T04:50:03.930Z,16.42
2023-05-22T04:52:32.238Z,17.05
2023-05-22T04:55:01.123Z,16.58
2023-05-22T04:57:30.149Z,14.60
2023-05-22T04:59:58.731Z,16.63
2023-05-22T05:02:27.016Z,16.95
2023-05-22T05:04:55.347Z,16.60
2023-05-22T05:07:25.284Z,16.83
2023-05-22T05:09:53.611Z,19.23
2023-05-22T05:12:21.904Z,14.82
2023-05-22T05:14:50.216Z,12.75
2023-05-22T05:17:18.455Z,15.90
2023-05-22T05:19:46.715Z,15.02
2023-05-22T05:22:15.001Z,16.95
2023-05-22T05:24:44.578Z,15.10
2023-05-22T05:27:12.907Z,16.13
2023-05-22T05:29:41.250Z,15.30
2023-05-22T05:32:09.924Z,16.67
2023-05-22T05:34:38.263Z,12.52
2023-05-22T05:37:06.927Z,16.38
2023-05-22T05:39:35.182Z,13.55
2023-05-22T05:42:04.997Z,15.02
2023-05-22T05:44:33.318Z,15.38
2023-05-22T05:47:02.133Z,15.80
2023-05-22T05:49:30.389Z,16.52
2023-05-22T05:51:58.695Z,13.95
2023-05-22T05:54:27.320Z,15.73
2023-05-22T05:56:55.739Z,16.35
2023-05-22T05:59:25.540Z,14.52
2023-05-22T06:01:54.020Z,15.05
2023-05-22T06:04:22.511Z,18.85
2023-05-22T06:06:51.830Z,16.88
2023-05-22T06:09:20.570Z,17.23
2023-05-22T06:11:48.855Z,15.32
2023-05-22T06:14:17.120Z,15.68
2023-05-22T06:16:46.939Z,16.20
2023-05-22T06:19:16.203Z,21.13
2023-05-22T06:21:44.621Z,16.80
2023-05-22T06:24:12.947Z,19.25
2023-05-22T06:26:41.202Z,16.58
2023-05-22T06:29:09.502Z,15.77
2023-05-22T06:31:38.525Z,18.38
2023-05-22T06:34:08.334Z,17.75
2023-05-22T06:36:37.505Z,13.98
2023-05-22T06:39:05.828Z,17.58
2023-05-22T06:41:35.604Z,16.55
2023-05-22T06:44:05.473Z,16.67
2023-05-22T06:46:33.809Z,14.68
2023-05-22T06:49:02.173Z,16.60
2023-05-22T06:51:32.743Z,16.17
2023-05-22T06:54:01.095Z,15.70
2023-05-22T06:56:29.379Z,16.25
2023-05-22T06:58:58.676Z,18.52
2023-05-22T07:01:29.237Z,22.13
2023-05-22T07:03:58.871Z,15.50
2023-05-22T07:06:27.505Z,18.03
2023-05-22T07:08:57.640Z,18.25
2023-05-22T07:11:25.936Z,16.48
2023-05-22T07:13:54.181Z,17.50
2023-05-22T07:16:23.430Z,17.02
2023-05-22T07:18:52.253Z,15.52
2023-05-22T07:21:23.742Z,16.70
2023-05-22T07:23:52.291Z,16.92
2023-05-22T07:26:22.647Z,17.27
2023-05-22T07:31:19.105Z,20.08
2023-05-22T07:33:47.461Z,17.88
2023-05-22T07:36:16.797Z,16.45
2023-05-22T07:38:45.062Z,20.10
2023-05-22T07:41:13.332Z,17.90
2023-05-22T07:43:42.963Z,17.63
2023-05-22T07:46:11.984Z,17.63
2023-05-22T07:48:40.296Z,19.15
2023-05-22T07:51:08.918Z,23.70
2023-05-22T07:53:37.282Z,16.90
2023-05-22T07:56:05.733Z,19.65
2023-05-22T07:58:34.709Z,17.85
2023-05-22T08:01:06.307Z,18.35
2023-05-22T08:03:36.646Z,17.65
2023-05-22T08:06:05.588Z,20.40
2023-05-22T08:08:34.683Z,18.77
2023-05-22T08:11:04.401Z,19.50
2023-05-22T08:13:33.337Z,22.85
2023-05-22T08:16:01.836Z,18.35
2023-05-22T08:18:31.588Z,23.92
2023-05-22T08:21:00.827Z,18.85
2023-05-22T08:23:29.952Z,19.33
2023-05-22T08:25:58.956Z,19.80
2023-05-22T08:28:27.370Z,19.55
2023-05-22T08:30:55.965Z,21.38
2023-05-22T08:33:24.457Z,16.15
2023-05-22T08:35:54.208Z,19.33
2023-05-22T08:38:22.567Z,21.67
2023-05-22T08:40:51.690Z,19.20
2023-05-22T08:43:21.241Z,18.05
2023-05-22T08:45:55.995Z,21.75
2023-05-22T08:48:24.641Z,20.10
2023-05-22T08:50:57.555Z,21.33
2023-05-22T08:53:26.643Z,19.13
2023-05-22T08:55:55.379Z,18.58
2023-05-22T08:58:23.764Z,17.15
2023-05-22T09:00:52.746Z,18.63
2023-05-22T09:03:21.881Z,22.27
2023-05-22T09:05:50.670Z,22.92
2023-05-22T09:08:21.365Z,23.25
2023-05-22T09:10:49.979Z,20.55
2023-05-22T09:13:28.291Z,19.13
2023-05-22T09:16:00.067Z,18.73
2023-05-22T09:18:28.941Z,21.80
2023-05-22T09:20:59.020Z,18.58
2023-05-22T09:23:29.905Z,23.55
2023-05-22T09:25:59.485Z,22.75
2023-05-22T09:28:28.992Z,22.65
2023-05-22T09:30:57.379Z,20.88
2023-05-22T09:33:25.862Z,19.58
2023-05-22T09:35:54.529Z,24.52
2023-05-22T09:38:24.417Z,20.00
2023-05-22T09:40:55.674Z,21.13
2023-05-22T09:43:25.749Z,20.92
2023-05-22T09:46:04.261Z,24.02
2023-05-22T09:48:35.267Z,20.55
2023-05-22T09:51:04.465Z,18.77
2023-05-22T09:53:34.168Z,20.85
2023-05-22T09:56:07.390Z,21.88
2023-05-22T09:58:36.809Z,24.35
2023-05-22T10:01:05.250Z,25.87
2023-05-22T10:03:35.378Z,21.17
2023-05-22T10:06:04.100Z,22.77
2023-05-22T10:08:38.336Z,24.63
2023-05-22T10:11:08.366Z,22.25
2023-05-22T10:13:36.767Z,19.58
2023-05-22T10:16:07.599Z,18.67
2023-05-22T10:18:37.121Z,21.83
2023-05-22T10:21:05.857Z,20.33
2023-05-22T10:23:34.305Z,21.50
2023-05-22T10:26:03.105Z,20.95
2023-05-22T10:28:39.095Z,16.65
2023-05-22T10:31:14.213Z,21.60
2023-05-22T10:33:46.148Z,20.83
2023-05-22T10:36:20.116Z,19.50
2023-05-22T10:38:58.206Z,23.45
2023-05-22T10:41:27.322Z,20.48
2023-05-22T10:43:57.841Z,22.42
2023-05-22T10:46:26.255Z,23.15
2023-05-22T10:48:56.392Z,24.35
2023-05-22T10:53:54.334Z,21.88
2023-05-22T10:56:25.241Z,23.48
2023-05-22T10:58:59.184Z,26.95
2023-05-22T11:01:27.817Z,24.13
2023-05-22T11:03:57.987Z,24.25
2023-05-22T11:06:34.068Z,25.50
2023-05-22T11:09:21.808Z,25.58
2023-05-22T11:12:13.934Z,29.40
2023-05-22T11:14:43.612Z,23.67
2023-05-22T11:17:13.642Z,27.75
2023-05-22T11:22:10.644Z,22.40
2023-05-22T11:24:39.019Z,21.40
2023-05-22T11:27:08.340Z,20.75
2023-05-22T11:29:38.403Z,22.03
2023-05-22T11:32:09.799Z,24.45
2023-05-22T11:34:40.733Z,22.55
2023-05-22T11:37:09.756Z,22.90
2023-05-22T11:39:38.087Z,20.20
2023-05-22T11:42:06.986Z,15.82
2023-05-22T11:44:35.248Z,15.80
2023-05-22T11:47:04.246Z,22.83
2023-05-22T11:49:33.949Z,16.02
2023-05-22T11:52:02.225Z,22.00
2023-05-22T11:54:33.099Z,17.98
2023-05-22T11:57:01.373Z,16.98
2023-05-22T11:59:29.668Z,20.35
2023-05-22T12:01:58.110Z,17.75
2023-05-22T12:04:26.597Z,18.92
2023-05-22T12:06:56.729Z,19.80
2023-05-22T12:11:56.247Z,16.25
2023-05-22T12:14:27.549Z,18.58
2023-05-22T12:16:56.350Z,18.60
2023-05-22T12:19:26.665Z,14.05
2023-05-22T12:21:56.426Z,13.98
2023-05-22T12:24:24.737Z,13.45
2023-05-22T12:26:53.312Z,13.30
2023-05-22T12:29:23.969Z,15.25
2023-05-22T12:31:52.542Z,16.75
2023-05-22T12:34:20.857Z,16.88
2023-05-22T12:36:49.285Z,16.90
2023-05-22T12:39:20.056Z,15.73
2023-05-22T12:41:48.463Z,21.10
2023-05-22T12:44:17.109Z,13.38
2023-05-22T12:46:45.475Z,16.50
2023-05-22T12:49:13.805Z,16.13
2023-05-22T12:51:42.126Z,15.43
2023-05-22T12:54:10.457Z,16.23
2023-05-22T12:56:40.147Z,22.75
2023-05-22T12:59:08.782Z,16.95
2023-05-22T13:01:37.106Z,12.23
2023-05-22T13:04:05.406Z,14.13
2023-05-22T13:06:33.749Z,16.50
2023-05-22T13:09:02.004Z,13.30
2023-05-22T13:11:30.327Z,12.65
2023-05-22T13:14:00.035Z,14.80
2023-05-22T13:16:28.503Z,13.15
2023-05-22T13:18:56.921Z,11.07
2023-05-22T13:21:26.419Z,10.75
2023-05-22T13:23:55.050Z,11.60
2023-05-22T13:26:23.373Z,13.68
2023-05-22T13:28:51.741Z,13.60
2023-05-22T13:31:21.395Z,13.98
2023-05-22T13:33:49.704Z,11.10
2023-05-22T13:36:19.154Z,11.63
2023-05-22T13:38:47.473Z,12.65
2023-05-22T13:41:17.701Z,11.85
2023-05-22T13:43:46.029Z,14.40
2023-05-22T13:46:14.309Z,12.68
2023-05-22T13:48:44.028Z,16.00
2023-05-22T13:51:12.373Z,6.50
2023-05-22T13:53:40.707Z,10.52
2023-05-22T13:56:09.008Z,10.85
2023-05-22T13:58:37.421Z,12.98
2023-05-22T14:01:05.957Z,16.25
2023-05-22T14:03:34.604Z,12.18
2023-05-22T14:06:04.329Z,13.52
2023-05-22T14:08:32.575Z,12.27
2023-05-22T14:11:01.067Z,11.88
2023-05-22T14:13:29.347Z,13.88
2023-05-22T14:15:57.614Z,14.90
2023-05-22T14:18:25.970Z,14.30
2023-05-22T14:20:54.267Z,12.20
2023-05-22T14:23:23.974Z,11.45
2023-05-22T14:25:52.336Z,11.52
2023-05-22T14:28:20.616Z,14.43
2023-05-22T14:30:49.039Z,13.82
2023-05-22T14:33:17.417Z,13.30
2023-05-22T14:35:45.998Z,12.48
2023-05-22T14:38:14.291Z,13.93
2023-05-22T14:40:44.047Z,15.35
2023-05-22T14:43:12.361Z,19.10
2023-05-22T14:45:41.045Z,11.50
2023-05-22T14:48:11.455Z,13.93
2023-05-22T14:50:39.817Z,11.95
2023-05-22T14:53:08.187Z,11.07
2023-05-22T14:55:36.759Z,12.63
2023-05-22T14:58:06.444Z,13.07
2023-05-22T15:00:34.982Z,15.95
2023-05-22T15:03:03.571Z,16.02
2023-05-22T15:05:31.901Z,13.90
2023-05-22T15:08:00.294Z,10.90
2023-05-22T15:10:29.001Z,11.07
2023-05-22T15:12:57.613Z,11.57
2023-05-22T15:15:27.530Z,10.05
2023-05-22T15:17:56.332Z,9.13
2023-05-22T15:20:24.714Z,10.98
2023-05-22T15:22:53.133Z,9.02
2023-05-22T15:25:21.452Z,11.32
2023-05-22T15:27:49.776Z,21.83
2023-05-22T15:30:19.137Z,10.93
2023-05-22T15:32:50.579Z,12.43
2023-05-22T15:35:18.915Z,11.48
2023-05-22T15:37:47.185Z,14.07
2023-05-22T15:40:18.334Z,11.32
2023-05-22T15:42:46.618Z,12.73
2023-05-22T15:45:14.916Z,14.02
2023-05-22T15:47:43.397Z,13.43
2023-05-22T15:50:13.195Z,12.40
2023-05-22T15:52:41.561Z,11.80
2023-05-22T15:55:10.123Z,11.80
2023-05-22T15:57:39.258Z,14.82
2023-05-22T16:00:08.899Z,13.50
2023-05-22T16:02:37.252Z,12.57
2023-05-22T16:05:06.446Z,12.13
2023-05-22T16:07:36.161Z,14.53
2023-05-22T16:10:05.111Z,12.23
2023-05-22T16:12:33.405Z,13.40
2023-05-22T16:15:03.292Z,11.38
2023-05-22T16:17:33.027Z,10.23
2023-05-22T16:20:01.468Z,11.13
2023-05-22T16:25:19.442Z,14.40
2023-05-22T16:30:17.281Z,14.38
2023-05-22T16:32:46.589Z,11.75
2023-05-22T16:35:15.336Z,13.45
2023-05-22T16:37:43.592Z,12.77
2023-05-22T16:40:12.441Z,13.15
2023-05-22T16:42:42.139Z,14.05
2023-05-22T16:45:10.800Z,11.70
2023-05-22T16:47:39.217Z,13.05
2023-05-22T16:50:09.191Z,13.77
2023-05-22T16:55:06.790Z,12.10
2023-05-22T16:57:35.132Z,10.43
2023-05-22T17:00:06.962Z,16.23
2023-05-22T17:02:35.513Z,18.70
2023-05-22T17:05:03.951Z,20.88
2023-05-22T17:07:32.650Z,13.25
2023-05-22T17:10:01.184Z,16.92
2023-05-22T17:12:29.548Z,19.05
2023-05-22T17:14:57.872Z,15.50
2023-05-22T17:17:27.632Z,14.15
